Airfield :
LOGIN :

Register | Disclaimer

   EN    FR    IT 

 










Legend :    VFR   Marginal VFR   IFR   Intensive IFR   Very Intensive IFR
Visi :
Ceiling :
>= 8 km
>= 3000ft
5 to 8 km
1000 to 3000 ft
1500m to 5 km
500 to 1000 ft
800 to 1500m
200 to 500 ft
< 800m
< 200 ft
Symbols :   Thunderstorms  Fog  Heavy snow  Heavy precipitations  Wind > 20 kt
SIGMETs :     Misc.  Thunderstorms  Icing  Turbulence  Mountain Waves  Volcanic Ashes







- Airport Elevation : 459 ft
- IATA code : CER
- Download approach charts


LFRC - Cherbourg / Maupertus

CURRENT METAR :
  • 201730Z AUTO 22002KT 6000 // OVC017 02/01 Q1002

EXPIRED METARs :
  • 201700Z AUTO VRB02KT 5000 // BKN013 OVC024 02/01 Q1003
  • 201630Z AUTO 22005KT 5000 // BKN028 OVC035 02/00 Q1002
  • 201600Z AUTO 22005KT 4400 // SCT015 BKN021 BKN028 02/00 Q1002
  • 201530Z AUTO 23005KT 4200 // SCT017 BKN026 OVC036 02/01 Q1002
  • 201500Z AUTO 20003KT 3100 // OVC015 02/00 Q1002

TAF TAF LFRC
Valid from the 20 at 15:00 until the 21 at 00:00 UTC


201400Z 2015/2024 VRB03KT 9999 BKN015
TEMPO 2015/2021 3000 SHRAGS BKN008 BKN015TCU
BECMG 2021/2024 18010KT
No reported NOTAMs for that airfield.



MET'MAP, your aeronautical weather chart ! - Copyright ORBIFLY December 2007 - Disclaimer

ORBIFLY MET'MAP TEAM :

Programming & Development : Alexandra Zaïnal
Concept & Development : Baudouin d'Aumeries
Co-Development & Prog : Marc-Olivier Méhu
Technical & hardware support : Manuel Goepfert

Contact : metmap@orbifly.com




SOURCES & CREDITS :

   NOAA